Colorado AWOS List, Phone Numbers, Maps

USA |  
| Search AWOS

Rocky Mountain States: Montana | Wyoming | Colorado | New Mexico

Complete weather reports: Colorado

Legend: KFNL = METAR available Follow your local AWOS on AV Mobile = METAR available on AV Mobile
Station Colorado Location Frequency Phone
KAKOFAA ID AKO, ASOS, KAKO 221553Z AUTO 27009KT 10SM CLR M01/M03 A2971 RMK AO2 SLP074 T10061033 Follow KAKO on AV Mobile COLORADO PLAINS REGIONAL 135.475 970-345-2320
KALSFAA ID ALS, ASOS, KALS 221552Z AUTO 04011KT 10SM BKN070 OVC080 01/M02 A2976 Follow KALS on AV Mobile SAN LUIS VALLEY REGIONAL 135.175 719-589-5669
KASEFAA ID ASE, ASOS, KASE 221553Z 01007KT 2SM -SN BR OVC018 M03/M04 A2980 Follow KASE on AV Mobile ASPEN-PITKIN COUNTY AIRPORT 120.400 970-925-9168
KBKFFAA ID BKF, KBKF 221458Z 19007KT 10SM FEW070 SCT120 BKN220 M02/M03 A2974 Follow KBKF on AV Mobile Aurora, Buckley Air Force Base Airport
K7BMFAA ID 7BM, AWOS-3, K7BM 221554Z AUTO 36004G18KT 3SM -SN OVC020 M02/M07 A2974 RMK AO2 Follow K7BM on AV Mobile Cottonwood Pass 132.050 303-512-4919
KBDUFAA ID BDU, AWOS-3, KBDU 221555Z AUTO 21004KT 10SM CLR 02/M06 A2971 RMK AO2 Follow KBDU on AV Mobile Boulder Municipal Airport 118.825 303-541-9540
KAEJFAA ID AEJ, AWOS-3, KAEJ 221555Z AUTO 00000KT 10SM OVC039 M02/M05 A2976 RMK AO2 T10251054 Follow KAEJ on AV Mobile Central Colorado Regional Airport 132.925 719-395-2599
KITRFAA ID ITR, ASOS, KITR 221553Z AUTO 31017KT 10SM CLR 03/M02 A2972 RMK AO2 SLP063 T00281022 Follow KITR on AV Mobile Kit Carson County Airport 135.225 719-346-7036
K1V6FAA ID 1V6, AWOS-3, K1V6 221555Z AUTO 00000KT 10SM CLR 02/00 A2976 RMK AO2 Follow K1V6 on AV Mobile CANON CITY 120.025
KAFFFAA ID AFF, KAFF 221458Z AUTO 33004KT 10SM CLR M03/M07 A2975 RMK AO2 SLP077 60000 T10261069 51005 Follow KAFF on AV Mobile Air Force Academy
KCOSFAA ID COS, ASOS, KCOS 221554Z 36003KT 10SM FEW060 SCT100 BKN230 00/M04 A2976 Follow KCOS on AV Mobile COLORADO SPRINGS MUNI 125.000 719-637-9696
KFLYFAA ID FLY, AWOS-3PT, KFLY 221554Z AUTO 30008KT 10SM SCT075 BKN100 00/M06 A2974 RMK AO2 T10051065 Follow KFLY on AV Mobile Meadowlake Airport, Peyton, CO 118.450 719-683-5371
KCCUFAA ID CCU, AWOS-3, KCCU 221555Z AUTO 28020KT OVC002 M08/M12 A2970 RMK AO2 PWINO Follow KCCU on AV Mobile Copper Mountain, Red Cliff Pass 118.075 970-968-1715
KCEZFAA ID CEZ, ASOS, KCEZ 221553Z AUTO 00000KT 10SM BKN075 04/01 A2992 RMK AO2 SLP118 T00390006 Follow KCEZ on AV Mobile CORTEZ MONTEZUMA COUNTY AIRPORT 135.625 970-564-0193
KCAGFAA ID CAG, ASOS, KCAG 221553Z AUTO 24014KT 10SM FEW075 BKN100 M01/M03 A2983 Follow KCAG on AV Mobile CRAIG MOFFAT AIRPORT 135.425 970-824-2373
KAJZFAA ID AJZ, AWOS-3, KAJZ 221555Z AUTO 00000KT 7SM SCT037 BKN050 OVC055 03/01 A2986 RMK AO2 T00250014 Follow KAJZ on AV Mobile Blake Field Airport 134.000 970-874-3251
KDNRICAO ID KDNR Denver / Stapleton International, Co.
KAPAFAA ID APA, ASOS, KAPA 221553Z 24005KT 10SM FEW070 FEW120 BKN140 M01/M03 A2972 RMK AO2 SLP076 SHSN OMTNS DSNT W-N T10061033 Follow KAPA on AV Mobile DENVER CENTENNIAL AIRPORT 120.300 303-706-9098
KDENFAA ID DEN, ASOS, KDEN 221553Z 18008KT 10SM FEW070 BKN120 BKN200 M01/M03 A2972 Follow KDEN on AV Mobile DENVER INTERNATIONAL AIRPORT 125.600 303-342-0838
KFTGFAA ID FTG, AWOS-3, KFTG 221555Z 11004KT 10SM BKN120 00/M03 A2973 Follow KFTG on AV Mobile Front Range Airport 119.025 303-261-9104
KBJCFAA ID BJC, AWOS-3, KBJC 221547Z 26003KT 50SM FEW050 SCT070 BKN120 00/M03 A2971 Follow KBJC on AV Mobile Rocky Mountain Metro Airport 126.250 720-887-8067
K4V5ICAO ID K4V5 Durango Aviation Weather Reporting Station
KDROFAA ID DRO, ASOS, KDRO 221553Z AUTO 26020G26KT 10SM CLR 04/M01 A2985 RMK AO2 PK WND 27032/1502 SLP099 T00441006 Follow KDRO on AV Mobile DURANGO-LA PLATA COUNTY AIRPORT 120.625 970-259-3579
KEGEFAA ID EGE, AWOS-3, KEGE 221550Z 07005KT 8SM VCSH BKN040 OVC050 M01/M02 A2984 Follow KEGE on AV Mobile Eagle County Regional 135.575 970-524-7386
CO90FAA ID CO90, ASOS, KAJZ 221610Z AUTO 00000KT 10SM SCT042 OVC050 03/02 A2986 RMK AO2 T00280015 Follow  on AV Mobile USAF Academy Bullseye Aux Airstrip 118.325 719-683-3346
K0COFAA ID 0CO, AWOS-3, K0CO 221554Z AUTO M1/4SM +SN OVC001 M14/M17 A2963 RMK AO2 Follow K0CO on AV Mobile EMPIRE 134.325
KEIKFAA ID EIK, AWOS-3, KEIK 221555Z AUTO 00000KT 10SM 00/M02 A2972 RMK AO2 T00021021 Follow KEIK on AV Mobile Erie Municipal Airport 133.825 303-604-4339
KFCSFAA ID FCS, KFCS 221458Z AUTO VRB02KT 10SM CLR 00/M02 A2975 RMK AO2 SLP100 T00011018 50004 Follow KFCS on AV Mobile Fort Carson
KFCLICAO ID KFCL Fort Collins Supplementary Aviation Weather Reporting Station
KFNLFAA ID FNL, AWOS-3, KFNL 221555Z AUTO 09006KT 10SM CLR 01/M07 A2973 RMK AO1 Follow KFNL on AV Mobile Fort Collins/Loveland, Fort Collins-Loveland Municipal Airport 135.075 970-669-9187
KFMMFAA ID FMM, AWOS-3, KFMM 221555Z AUTO 28009KT 10SM CLR M02/M06 A2972 RMK AO2 T10171060 Follow KFMM on AV Mobile Fort Morgan Municipal Airport 132.950 970-867-4823
KGNBFAA ID GNB, AWOS-1 Granby-Grand County Airport 119.925 970-887-1803
KGJTFAA ID GJT, ASOS, KGJT 221553Z 31003KT 10SM OVC060 01/01 A2986 Follow KGJT on AV Mobile GRAND JUNCTION WALKER FIELD 118.550 970-245-7881
KGXYFAA ID GXY, AWOS-3, KGXY 221555Z AUTO 01010KT 10SM CLR 01/M07 A2971 RMK AO1 Follow KGXY on AV Mobile Greeley, Greeley-Weld County Airport 135.175 970-352-3511
K2V9ICAO ID K2V9 Gunnison Aviation Weather Reporting Station
KGUCFAA ID GUC, AWOS-3, KGUC 221555Z AUTO 00000KT 3/4SM OVC011 M02/M04 A2981 RMK AO1 P0008 Follow KGUC on AV Mobile Gunnison, Gunnison-Crested Butte Regional Airport 135.075 970-641-3240
KHDNFAA ID HDN, AWOS-3, KHDN 221555Z AUTO 28016KT 10SM FEW028 BKN035 OVC044 M01/M04 A2981 RMK AO1 Follow KHDN on AV Mobile Hayden, Yampa Valley Airport 119.275 970-276-3690
KHEQFAA ID HEQ, AWOS-3, KHEQ 221555Z AUTO 30010G19KT 10SM CLR 03/M02 A2967 RMK AO2 Follow KHEQ on AV Mobile Holyoke Airport 119.275 970-854-3679
K20VFAA ID 20V, AWOS-3, K20V 221556Z AUTO 00000KT 1SM -SN OVC005 M02/M05 A2978 RMK AO2 Follow K20V on AV Mobile Kremmling, Mc Elroy Airfield 118.425 970-724-9659
KLHXFAA ID LHX, ASOS, KLHX 221553Z AUTO 27004KT 10SM OVC100 04/M03 A2978 RMK AO2 SLP082 T00441033 Follow KLHX on AV Mobile LA JUNTA MUNICIPAL AIRPORT 135.525 719-384-5961
KVTPFAA ID VTP, AWOS-3, KVTP 221550Z AUTO 27006KT 5SM -SN SCT018 BKN024 OVC032 M03/M06 A2976 RMK AO2 Follow KVTP on AV Mobile La Veta Mountain, La Veta Pass 119.925 719-587-3120
KLAAFAA ID LAA, ASOS, KLAA 221553Z AUTO 30007KT 10SM CLR 04/M02 A2975 RMK AO2 SLP074 T00441022 Follow KLAA on AV Mobile LAMAR MUNICIPAL AIRPORT 135.625 719-336-3854
KLXVFAA ID LXV, ASOS, KLXV 221553Z AUTO 31007KT 1SM -SN BR BKN018 OVC029 M08/M09 A2972 Follow KLXV on AV Mobile LEADVILLE LAKE CO 118.375 719-486-2735
KLICFAA ID LIC, ASOS, KLIC 221555Z AUTO 28006KT 10SM CLR M02/M04 A2975 RMK AO2 SLP078 T10171044 Follow KLIC on AV Mobile LIMON MUNICIPAL AIRPORT 121.125 719-775-0515
KLMOFAA ID LMO, AWOS-3, KLMO 221555Z AUTO 06005KT 10SM CLR 01/M02 A2973 RMK AO2 T00101025 Follow KLMO on AV Mobile Vance Brand Airport 120.000 303-684-7545
KEEOFAA ID EEO, ASOS, KEEO 221553Z AUTO 26005KT 10SM BKN047 OVC060 01/M03 A2986 RMK AO2 SLP107 T00061028 Follow KEEO on AV Mobile MEEKER AIRPORT 135.525 970-878-5036
KMYPFAA ID MYP, AWOS-3, KMYP 221558Z AUTO OVC006 M09/M11 A2984 RMK AO2 PWINO Follow KMYP on AV Mobile Salida Mountain, Monarch Pass 124.175 719-539-4436
KMTJFAA ID MTJ, ASOS, KMTJ 221553Z AUTO 13005KT 10SM OVC070 02/01 A2986 RMK AO2 SLP105 T00220006 Follow KMTJ on AV Mobile MONTROSE REGIONAL AIRPORT 135.225 970-249-1534
KMNHFAA ID MNH, AWOS-3, KMNH 221553Z AUTO 26005KT 10SM OVC090 M03/M06 A2972 RMK AO2 Follow KMNH on AV Mobile Elbert Mountain, Monument Pass 134.375 303-648-3479
K3MWFAA ID 3MW, AWOS-3, K3MW 211630Z AUTO RMK AO2 TSNO PWINO Follow K3MW on AV Mobile Mount Werner 127.125 970-871-5640
KCRVICAO ID KCRV Nederland Mountain, Corona Pass
KAIBFAA ID AIB, AWOS-3, KAIB 221555Z AUTO 10005KT 10SM -DZ OVC034 02/01 A2994 RMK AO2 Follow KAIB on AV Mobile Hopkins Field Airport 132.525 970-864-2325
KPSOFAA ID PSO, AWOS-3, KPSO 221555Z AUTO 12003KT 10SM BKN039 OVC046 00/00 A2983 RMK AO2 T00000000 Follow KPSO on AV Mobile Stevens Field Airport 127.175 970-731-0365
KPEFICAO ID KPEF Peterson Air Force Base
KPUXICAO ID KPUX Pueblo NEXRAD
KPUBFAA ID PUB, ASOS, KPUB 221553Z 26003KT 10SM OVC090 02/M01 A2976 Follow KPUB on AV Mobile PUEBLO MEMORIAL AIRPORT 125.250 719-948-2803
K1V1ICAO ID K1V1 Rifle Aviation Weather Reporting Station
KRILFAA ID RIL, ASOS, KRIL 221553Z AUTO 00000KT 10SM BKN008 OVC060 01/00 A2986 RMK AO2 RAB12E22 SLP112 P0000 T00110000 Follow KRIL on AV Mobile RIFLE GARFIELD COUNTY RGNL 135.275 970-625-2206
K04VFAA ID 04V, AWOS-3, K04V 221554Z AUTO 30005KT 2 1/2SM -SN SCT011 BKN018 OVC025 M01/M02 A2978 RMK AO2 Follow K04V on AV Mobile Saguache, Saguache Municipal Airport 118.625 719-655-2229
KS29ICAO ID KS29 Salida
KANKFAA ID ANK, AWOS-3, KANK 221555Z AUTO 27003KT 10SM SCT022 BKN048 OVC075 00/M03 A2983 RMK AO1 T00001030 Follow KANK on AV Mobile Harriet Alexander Field Airport 133.850 719-539-5268
KSPDICAO ID KSPD, KSPD 221556Z AUTO 32017G20KT 05/M02 A2976 RMK AO1 SLP062 T00501022 Follow KSPD on AV Mobile SPRINGFIELD COMANCHE NATL
KSBSFAA ID SBS, AWOS-3, KSBS 221555Z AUTO 26012G19KT 3SM SCT010 BKN022 OVC035 M02/M05 A2980 RMK AO1 T10171049 Follow KSBS on AV Mobile Steamboat Springs 118.325 970-879-7794
KSTKFAA ID STK, AWOS-3, KSTK 221550Z AUTO 30004KT 10SM CLR 00/M02 A2971 RMK AO2 Follow KSTK on AV Mobile Sterling Municipal Airport 118.525 970-526-3009
K5SMFAA ID 5SM, AWOS-3, K5SM 221559Z AUTO OVC002 A2982 RMK AO2 PWINO Follow K5SM on AV Mobile Sunlight 126.075 970-384-3380
KTEXFAA ID TEX, AWOS-3, KTEX 221535Z AUTO 26018G25KT 1 3/4SM -SN BKN008 BKN014 OVC021 M01/M02 A2991 RMK AO2 T10151021 Follow KTEX on AV Mobile Telluride, Telluride Regional Airport 118.325 970-728-1534
KTADFAA ID TAD, ASOS, KTAD 221604Z AUTO 18006KT 1/2SM SN FZFG VV016 M01/M01 A2980 RMK AO2 P0000 T10061011 Follow KTAD on AV Mobile Trinidad, Perry Stokes Airport 119.025 719-845-1156
K33VFAA ID 33V, AWOS-3, K33V 221555Z AUTO 11006KT 10SM SCT055 BKN080 OVC100 M08/M11 A2973 RMK AO2 Follow K33V on AV Mobile WALDEN 118.625 970-723-4513
4V1FAA ID 4V1, AWOS-3, KAJZ 221610Z AUTO 00000KT 10SM SCT042 OVC050 03/02 A2986 RMK AO2 T00280015 Follow  on AV Mobile Spanish Peaks Airfield 123.600 719-738-1053
K4BMFAA ID 4BM, AWOS-3, K4BM 221554Z AUTO 32006G19KT 290V050 2SM -SN OVC009 M10/M11 A2974 RMK AO2 VIS 1V3 Follow K4BM on AV Mobile Wilkerson Pass 132.3 303-512-4418
KC96ICAO ID KC96 Winter Park Resort
KCPWFAA ID CPW, AWOS-3, KCPW 221557Z AUTO 1/4SM SN OVC002 M07/M07 A2984 RMK AO2 P0007 Follow KCPW on AV Mobile Pagosa Springs, Wolf Creek Pass 121.125 970-264-2180
K2V5FAA ID 2V5, AWOS-3, K2V5 221615Z AUTO 29013G18KT 10SM CLR 03/M02 A2969 RMK AO2 T00291017 Follow K2V5 on AV Mobile Wray Municipal Airport 118.250 970-332-5930

Click on the AV Mobile icon AV Mobile icon by any station to follow that AWOS feed on AirportView.net Mobile.

Legend: Commercial service airport with AWOS Commercial Airport AWOSNon-Commercial service airport with AWOS Non-Commercial Airport AWOS
Airport AWOS - Click symbol for weather report Fort Morgan Municipal Airport KFMM 221555Z AUTO 28009KT 10SM CLR M02/M06 A2972 RMK AO2 T10171060 Hopkins Field Airport KAIB 221555Z AUTO 10005KT 10SM -DZ OVC034 02/01 A2994 RMK AO2 Telluride, Telluride Regional Airport KTEX 221535Z AUTO 26018G25KT 1 3/4SM -SN BKN008 BKN014 OVC021 M01/M02 A2991 RMK AO2 T10151021 Greeley, Greeley-Weld County Airport KGXY 221555Z AUTO 01010KT 10SM CLR 01/M07 A2971 RMK AO1 Front Range Airport KFTG 221555Z 11004KT 10SM BKN120 00/M03 A2973 Rocky Mountain Metro Airport KBJC 221547Z 26003KT 50SM FEW050 SCT070 BKN120 00/M03 A2971 DENVER CENTENNIAL AIRPORT KAPA 221553Z 24005KT 10SM FEW070 FEW120 BKN140 M01/M03 A2972 RMK AO2 SLP076 SHSN OMTNS DSNT W-N T10061033 DENVER INTERNATIONAL AIRPORT KDEN 221553Z 18008KT 10SM FEW070 BKN120 BKN200 M01/M03 A2972 Fort Collins/Loveland, Fort Collins-Loveland Municipal Airport KFNL 221555Z AUTO 09006KT 10SM CLR 01/M07 A2973 RMK AO1 Boulder Municipal Airport KBDU 221555Z AUTO 21004KT 10SM CLR 02/M06 A2971 RMK AO2 Vance Brand Airport KLMO 221555Z AUTO 06005KT 10SM CLR 01/M02 A2973 RMK AO2 T00101025 Sterling Municipal Airport KSTK 221550Z AUTO 30004KT 10SM CLR 00/M02 A2971 RMK AO2 Holyoke Airport KHEQ 221555Z AUTO 30010G19KT 10SM CLR 03/M02 A2967 RMK AO2 COLORADO PLAINS REGIONAL KAKO 221553Z AUTO 27009KT 10SM CLR M01/M03 A2971 RMK AO2 SLP074 T10061033 Kit Carson County Airport KITR 221553Z AUTO 31017KT 10SM CLR 03/M02 A2972 RMK AO2 SLP063 T00281022 LIMON MUNICIPAL AIRPORT KLIC 221555Z AUTO 28006KT 10SM CLR M02/M04 A2975 RMK AO2 SLP078 T10171044 COLORADO SPRINGS MUNI KCOS 221554Z 36003KT 10SM FEW060 SCT100 BKN230 00/M04 A2976 LAMAR MUNICIPAL AIRPORT KLAA 221553Z AUTO 30007KT 10SM CLR 04/M02 A2975 RMK AO2 SLP074 T00441022 LA JUNTA MUNICIPAL AIRPORT KLHX 221553Z AUTO 27004KT 10SM OVC100 04/M03 A2978 RMK AO2 SLP082 T00441033 Trinidad, Perry Stokes Airport KTAD 221604Z AUTO 18006KT 1/2SM SN FZFG VV016 M01/M01 A2980 RMK AO2 P0000 T10061011 PUEBLO MEMORIAL AIRPORT KPUB 221553Z 26003KT 10SM OVC090 02/M01 A2976 CANON CITY 1V6 SAN LUIS VALLEY REGIONAL KALS 221552Z AUTO 04011KT 10SM BKN070 OVC080 01/M02 A2976 Saguache, Saguache Municipal Airport K04V 221554Z AUTO 30005KT 2 1/2SM -SN SCT011 BKN018 OVC025 M01/M02 A2978 RMK AO2 Granby-Grand County Airport KGNB WALDEN 33V Steamboat Springs KSBS 221555Z AUTO 26012G19KT 3SM SCT010 BKN022 OVC035 M02/M05 A2980 RMK AO1 T10171049 Hayden, Yampa Valley Airport KHDN 221555Z AUTO 28016KT 10SM FEW028 BKN035 OVC044 M01/M04 A2981 RMK AO1 Kremmling, Mc Elroy Airfield K20V 221556Z AUTO 00000KT 1SM -SN OVC005 M02/M05 A2978 RMK AO2 LEADVILLE LAKE CO KLXV 221553Z AUTO 31007KT 1SM -SN BR BKN018 OVC029 M08/M09 A2972 Eagle County Regional KEGE 221550Z 07005KT 8SM VCSH BKN040 OVC050 M01/M02 A2984 CRAIG MOFFAT AIRPORT KCAG 221553Z AUTO 24014KT 10SM FEW075 BKN100 M01/M03 A2983 MEEKER AIRPORT KEEO 221553Z AUTO 26005KT 10SM BKN047 OVC060 01/M03 A2986 RMK AO2 SLP107 T00061028 ASPEN-PITKIN COUNTY AIRPORT KASE 221553Z 01007KT 2SM -SN BR OVC018 M03/M04 A2980 Gunnison, Gunnison-Crested Butte Regional Airport KGUC 221555Z AUTO 00000KT 3/4SM OVC011 M02/M04 A2981 RMK AO1 P0008 DURANGO-LA PLATA COUNTY AIRPORT  KDRO 221553Z AUTO 26020G26KT 10SM CLR 04/M01 A2985 RMK AO2 PK WND 27032/1502 SLP099 T00441006 Stevens Field Airport KPSO 221555Z AUTO 12003KT 10SM BKN039 OVC046 00/00 A2983 RMK AO2 T00000000 CORTEZ MONTEZUMA COUNTY AIRPORT  KCEZ 221553Z AUTO 00000KT 10SM BKN075 04/01 A2992 RMK AO2 SLP118 T00390006 MONTROSE REGIONAL AIRPORT KMTJ 221553Z AUTO 13005KT 10SM OVC070 02/01 A2986 RMK AO2 SLP105 T00220006 RIFLE GARFIELD COUNTY RGNL KRIL 221553Z AUTO 00000KT 10SM BKN008 OVC060 01/00 A2986 RMK AO2 RAB12E22 SLP112 P0000 T00110000 GRAND JUNCTION WALKER FIELD KGJT 221553Z 31003KT 10SM OVC060 01/01 A2986 Blake Field Airport KAJZ 221555Z AUTO 00000KT 7SM SCT037 BKN050 OVC055 03/01 A2986 RMK AO2 T00250014 Central Colorado Regional Airport KAEJ 221555Z AUTO 00000KT 10SM OVC039 M02/M05 A2976 RMK AO2 T10251054 Harriet Alexander Field Airport KANK 221555Z AUTO 27003KT 10SM SCT022 BKN048 OVC075 00/M03 A2983 RMK AO1 T00001030 Erie Municipal Airport KEIK 221555Z AUTO 00000KT 10SM 00/M02 A2972 RMK AO2 T00021021 Wray Municipal Airport K2V5 221615Z AUTO 29013G18KT 10SM CLR 03/M02 A2969 RMK AO2 T00291017
Legend: High Mountain AWOS Mountain Pass AWOS
Mountain Pass AWOS - Click symbol for weather report Pagosa Springs, Wolf Creek Pass KCPW 221557Z AUTO 1/4SM SN OVC002 M07/M07 A2984 RMK AO2 P0007 Saguache, Saguache Municipal Airport K04V 221554Z AUTO 30005KT 2 1/2SM -SN SCT011 BKN018 OVC025 M01/M02 A2978 RMK AO2 Kremmling, Mc Elroy Airfield K20V 221556Z AUTO 00000KT 1SM -SN OVC005 M02/M05 A2978 RMK AO2 La Veta Mountain, La Veta Pass KVTP 221550Z AUTO 27006KT 5SM -SN SCT018 BKN024 OVC032 M03/M06 A2976 RMK AO2 Salida Mountain, Monarch Pass KMYP 221558Z AUTO OVC006 M09/M11 A2984 RMK AO2 PWINO Cottonwood Pass K7BM 221554Z AUTO 36004G18KT 3SM -SN OVC020 M02/M07 A2974 RMK AO2 Elbert Mountain, Monument Pass KMNH 221553Z AUTO 26005KT 10SM OVC090 M03/M06 A2972 RMK AO2 Wilkerson Pass K4BM 221554Z AUTO 32006G19KT 290V050 2SM -SN OVC009 M10/M11 A2974 RMK AO2 VIS 1V3 Copper Mountain, Red Cliff Pass KCCU 221555Z AUTO 28020KT OVC002 M08/M12 A2970 RMK AO2 PWINO EMPIRE 0CO Sunlight K5SM 221559Z AUTO OVC002 A2982 RMK AO2 PWINO Mount Werner K3MW 211630Z AUTO RMK AO2 TSNO PWINO
Garmin aera 796 $1999 at Avionics Specialists LLC
Bose A20 Aviation Headsets $995 at Avionics Specialists LLC